createdAt,value
2018-05-21T00:00:05.603Z,0
2018-05-21T00:01:07.217Z,0
2018-05-21T00:02:08.831Z,0
2018-05-21T00:03:10.446Z,0
2018-05-21T00:04:12.067Z,0
2018-05-21T00:05:13.680Z,0
2018-05-21T00:06:15.291Z,0
2018-05-21T00:07:16.900Z,0
2018-05-21T00:08:18.516Z,0
2018-05-21T00:09:20.131Z,0
2018-05-21T00:10:21.743Z,0
2018-05-21T00:11:23.362Z,0
2018-05-21T00:12:24.974Z,0
2018-05-21T00:13:26.595Z,0
2018-05-21T00:14:28.201Z,0
2018-05-21T00:15:29.811Z,0
2018-05-21T00:16:31.430Z,0
2018-05-21T00:17:33.039Z,0
2018-05-21T00:18:34.656Z,0
2018-05-21T00:19:36.273Z,0
2018-05-21T00:20:37.889Z,0
2018-05-21T00:21:39.497Z,0
2018-05-21T00:22:41.111Z,0
2018-05-21T00:23:42.730Z,0
2018-05-21T00:24:44.342Z,0
2018-05-21T00:25:45.953Z,0
2018-05-21T00:26:47.575Z,0
2018-05-21T00:27:49.186Z,0
2018-05-21T00:28:50.802Z,0
2018-05-21T00:29:52.413Z,0
2018-05-21T00:30:54.114Z,0
2018-05-21T00:31:55.648Z,0
2018-05-21T00:32:57.259Z,0
2018-05-21T00:33:58.878Z,0
2018-05-21T00:35:00.491Z,0
2018-05-21T00:36:02.112Z,0
2018-05-21T00:37:03.717Z,0
2018-05-21T00:38:05.329Z,0
2018-05-21T00:39:06.943Z,0
2018-05-21T00:40:08.557Z,0
2018-05-21T00:41:10.174Z,0
2018-05-21T00:42:11.786Z,0
2018-05-21T00:43:13.403Z,0
2018-05-21T00:44:15.020Z,0
2018-05-21T00:45:16.631Z,0
2018-05-21T00:46:18.244Z,0
2018-05-21T00:47:19.861Z,0
2018-05-21T00:48:21.471Z,0
2018-05-21T00:49:23.096Z,0
2018-05-21T00:50:24.712Z,0
2018-05-21T00:51:26.311Z,0
2018-05-21T00:52:27.921Z,0
2018-05-21T00:53:29.544Z,0
2018-05-21T00:54:31.157Z,0
2018-05-21T00:55:32.771Z,0
2018-05-21T00:56:34.389Z,0
2018-05-21T00:57:35.996Z,0
2018-05-21T00:58:37.605Z,0
2018-05-21T00:59:39.221Z,0
2018-05-21T01:00:40.837Z,0
2018-05-21T01:01:42.448Z,0
2018-05-21T01:02:44.066Z,0
2018-05-21T01:03:45.681Z,0
2018-05-21T01:04:47.294Z,0
2018-05-21T01:05:48.908Z,0
2018-05-21T01:06:50.521Z,0
2018-05-21T01:07:52.134Z,0
2018-05-21T01:08:53.746Z,0
2018-05-21T01:09:55.364Z,0
2018-05-21T01:10:56.985Z,0
2018-05-21T01:11:58.591Z,0
2018-05-21T01:13:00.204Z,0
2018-05-21T01:14:01.817Z,0
2018-05-21T01:15:03.433Z,0
2018-05-21T01:16:05.050Z,0
2018-05-21T01:17:06.662Z,0
2018-05-21T01:18:08.274Z,0
2018-05-21T01:19:09.893Z,0
2018-05-21T01:20:11.500Z,0
2018-05-21T01:21:13.110Z,0
2018-05-21T01:22:14.728Z,0
2018-05-21T01:23:16.349Z,0
2018-05-21T01:24:17.956Z,0
2018-05-21T01:25:19.569Z,0
2018-05-21T01:26:21.185Z,0
2018-05-21T01:27:22.794Z,0
2018-05-21T01:28:24.414Z,0
2018-05-21T01:29:26.031Z,0
2018-05-21T01:30:27.642Z,0
2018-05-21T01:31:29.260Z,0
2018-05-21T01:32:30.872Z,0
2018-05-21T01:33:32.481Z,0
2018-05-21T01:34:34.107Z,0
2018-05-21T01:35:35.715Z,0
2018-05-21T01:36:37.328Z,0
2018-05-21T01:37:38.943Z,0
2018-05-21T01:38:40.557Z,0
2018-05-21T01:39:42.167Z,0
2018-05-21T01:40:43.781Z,0
2018-05-21T01:41:45.395Z,0
2018-05-21T01:42:47.009Z,0
2018-05-21T01:43:48.621Z,0
2018-05-21T01:44:50.235Z,0
2018-05-21T01:45:51.851Z,0
2018-05-21T01:46:53.464Z,0
2018-05-21T01:47:55.076Z,0
2018-05-21T01:48:56.685Z,0
2018-05-21T01:49:58.298Z,0
2018-05-21T01:50:59.914Z,0
2018-05-21T01:52:01.537Z,0
2018-05-21T01:53:03.146Z,0
2018-05-21T01:54:04.756Z,0
2018-05-21T01:55:06.366Z,0
2018-05-21T01:56:07.986Z,0
2018-05-21T01:57:09.600Z,0
2018-05-21T01:58:11.211Z,0
2018-05-21T01:59:12.823Z,0
2018-05-21T02:00:14.436Z,0
2018-05-21T02:01:16.059Z,0
2018-05-21T02:02:17.666Z,0
2018-05-21T02:03:19.285Z,0
2018-05-21T02:04:20.897Z,0
2018-05-21T02:05:22.507Z,0
2018-05-21T02:06:24.120Z,0
2018-05-21T02:07:25.733Z,0
2018-05-21T02:08:27.373Z,0
2018-05-21T02:09:28.958Z,0
2018-05-21T02:10:30.579Z,0
2018-05-21T02:11:32.193Z,0
2018-05-21T02:12:33.811Z,0
2018-05-21T02:13:35.424Z,0
2018-05-21T02:14:37.039Z,0
2018-05-21T02:15:38.649Z,0
2018-05-21T02:16:40.260Z,0
2018-05-21T02:17:41.874Z,0
2018-05-21T02:18:43.482Z,0
2018-05-21T02:19:45.100Z,0
2018-05-21T02:20:46.713Z,0
2018-05-21T02:21:48.325Z,0
2018-05-21T02:22:49.945Z,0
2018-05-21T02:23:51.551Z,0
2018-05-21T02:24:53.164Z,0
2018-05-21T02:25:54.779Z,0
2018-05-21T02:26:56.401Z,0
2018-05-21T02:27:58.002Z,0
2018-05-21T02:28:59.614Z,0
2018-05-21T02:30:01.233Z,0
2018-05-21T02:31:02.847Z,0
2018-05-21T02:32:04.457Z,0
2018-05-21T02:33:06.067Z,0
2018-05-21T02:34:07.687Z,0
2018-05-21T02:35:09.302Z,0
2018-05-21T02:36:10.920Z,0
2018-05-21T02:37:12.527Z,0
2018-05-21T02:38:14.138Z,0
2018-05-21T02:39:15.754Z,0
2018-05-21T02:40:17.368Z,0
2018-05-21T02:41:18.981Z,0
2018-05-21T02:42:20.591Z,0
2018-05-21T02:43:22.208Z,0
2018-05-21T02:44:23.820Z,0
2018-05-21T02:45:25.436Z,0
2018-05-21T02:46:27.046Z,0
2018-05-21T02:47:28.664Z,0
2018-05-21T02:48:30.273Z,0
2018-05-21T02:49:31.888Z,0
2018-05-21T02:50:33.497Z,0
2018-05-21T02:51:35.113Z,0
2018-05-21T02:52:36.721Z,0
2018-05-21T02:53:38.336Z,0
2018-05-21T02:54:39.944Z,0
2018-05-21T02:55:41.562Z,0
2018-05-21T02:56:43.179Z,4
2018-05-21T02:57:44.787Z,4
2018-05-21T02:58:46.403Z,4
2018-05-21T02:59:48.015Z,0
2018-05-21T03:00:49.632Z,4
2018-05-21T03:01:51.242Z,4
2018-05-21T03:02:53.428Z,8
2018-05-21T03:03:55.053Z,4
2018-05-21T03:04:56.661Z,8
2018-05-21T03:05:58.274Z,4
2018-05-21T03:06:59.891Z,8
2018-05-21T03:08:01.498Z,8
2018-05-21T03:09:03.117Z,12
2018-05-21T03:10:04.736Z,16
2018-05-21T03:11:06.350Z,16
2018-05-21T03:12:07.961Z,20
2018-05-21T03:13:09.574Z,24
2018-05-21T03:14:11.186Z,24
2018-05-21T03:15:12.805Z,28
2018-05-21T03:16:14.422Z,32
2018-05-21T03:17:16.041Z,32
2018-05-21T03:18:17.659Z,40
2018-05-21T03:19:19.269Z,40
2018-05-21T03:20:20.887Z,48
2018-05-21T03:21:22.497Z,56
2018-05-21T03:22:24.109Z,60
2018-05-21T03:23:25.724Z,68
2018-05-21T03:24:27.336Z,72
2018-05-21T03:25:28.956Z,84
2018-05-21T03:26:30.573Z,92
2018-05-21T03:27:32.188Z,100
2018-05-21T03:28:33.802Z,108
2018-05-21T03:29:35.421Z,120
2018-05-21T03:30:37.039Z,132
2018-05-21T03:31:38.656Z,144
2018-05-21T03:32:40.275Z,156
2018-05-21T03:33:41.894Z,172
2018-05-21T03:34:43.508Z,184
2018-05-21T03:35:45.130Z,196
2018-05-21T03:36:46.738Z,212
2018-05-21T03:37:48.353Z,228
2018-05-21T03:38:49.970Z,244
2018-05-21T03:39:51.582Z,264
2018-05-21T03:40:53.211Z,284
2018-05-21T03:41:54.827Z,300
2018-05-21T03:42:56.446Z,320
2018-05-21T03:43:58.057Z,340
2018-05-21T03:44:59.675Z,364
2018-05-21T03:46:01.291Z,388
2018-05-21T03:47:02.907Z,412
2018-05-21T03:48:04.527Z,436
2018-05-21T03:49:06.145Z,464
2018-05-21T03:50:07.756Z,492
2018-05-21T03:51:09.365Z,520
2018-05-21T03:52:10.985Z,556
2018-05-21T03:53:12.606Z,592
2018-05-21T03:54:14.216Z,632
2018-05-21T03:55:15.838Z,672
2018-05-21T03:56:17.451Z,716
2018-05-21T03:57:19.066Z,752
2018-05-21T03:58:20.678Z,796
2018-05-21T03:59:22.298Z,832
2018-05-21T04:00:23.912Z,864
2018-05-21T04:01:25.534Z,888
2018-05-21T04:02:27.146Z,908
2018-05-21T04:03:28.767Z,920
2018-05-21T04:04:30.473Z,936
2018-05-21T04:05:31.997Z,948
2018-05-21T04:06:33.614Z,964
2018-05-21T04:07:35.229Z,984
2018-05-21T04:08:36.849Z,1004
2018-05-21T04:09:38.468Z,1024
2018-05-21T04:10:40.098Z,1044
2018-05-21T04:11:41.710Z,1060
2018-05-21T04:12:43.324Z,1084
2018-05-21T04:13:44.943Z,1116
2018-05-21T04:14:46.560Z,1148
2018-05-21T04:15:48.177Z,1188
2018-05-21T04:16:49.798Z,1228
2018-05-21T04:17:51.420Z,1276
2018-05-21T04:18:53.072Z,1328
2018-05-21T04:19:54.647Z,1380
2018-05-21T04:20:56.271Z,1436
2018-05-21T04:21:57.891Z,1500
2018-05-21T04:22:59.512Z,1564
2018-05-21T04:24:01.134Z,1632
2018-05-21T04:25:02.763Z,1704
2018-05-21T04:26:04.375Z,1780
2018-05-21T04:27:05.997Z,1844
2018-05-21T04:28:07.618Z,1900
2018-05-21T04:29:09.237Z,1948
2018-05-21T04:30:10.853Z,1976
2018-05-21T04:31:12.469Z,1956
2018-05-21T04:32:14.089Z,1912
2018-05-21T04:33:15.708Z,1888
2018-05-21T04:34:17.329Z,1872
2018-05-21T04:35:18.944Z,1876
2018-05-21T04:36:20.643Z,1896
2018-05-21T04:37:22.177Z,1916
2018-05-21T04:38:23.798Z,1936
2018-05-21T04:39:25.423Z,1952
2018-05-21T04:40:27.033Z,1972
2018-05-21T04:41:28.649Z,2004
2018-05-21T04:42:30.269Z,2040
2018-05-21T04:43:31.885Z,2084
2018-05-21T04:44:33.508Z,2120
2018-05-21T04:45:35.125Z,2168
2018-05-21T04:46:36.756Z,2224
2018-05-21T04:47:38.363Z,2280
2018-05-21T04:48:39.987Z,2340
2018-05-21T04:49:41.598Z,2412
2018-05-21T04:50:43.218Z,2484
2018-05-21T04:51:44.835Z,2572
2018-05-21T04:52:46.453Z,2672
2018-05-21T04:53:48.072Z,2784
2018-05-21T04:54:49.695Z,2892
2018-05-21T04:55:51.304Z,2992
2018-05-21T04:56:52.925Z,3104
2018-05-21T04:57:54.539Z,3204
2018-05-21T04:58:56.160Z,3284
2018-05-21T04:59:57.777Z,3332
2018-05-21T05:00:59.405Z,3348
2018-05-21T05:02:01.015Z,3340
2018-05-21T05:03:02.635Z,3280
2018-05-21T05:04:04.252Z,3184
2018-05-21T05:05:05.873Z,3068
2018-05-21T05:06:07.488Z,2952
2018-05-21T05:07:09.107Z,2848
2018-05-21T05:08:10.730Z,2748
2018-05-21T05:09:12.348Z,2664
2018-05-21T05:10:13.962Z,2592
2018-05-21T05:11:15.576Z,2528
2018-05-21T05:12:17.191Z,2480
2018-05-21T05:13:18.811Z,2452
2018-05-21T05:14:20.434Z,2432
2018-05-21T05:15:22.057Z,2428
2018-05-21T05:16:23.675Z,2440
2018-05-21T05:17:25.296Z,2456
2018-05-21T05:18:26.908Z,2476
2018-05-21T05:19:28.535Z,2492
2018-05-21T05:20:30.148Z,2504
2018-05-21T05:21:31.767Z,2512
2018-05-21T05:22:33.391Z,2536
2018-05-21T05:23:35.007Z,2556
2018-05-21T05:24:36.628Z,2576
2018-05-21T05:25:38.243Z,2592
2018-05-21T05:26:39.881Z,2616
2018-05-21T05:27:41.492Z,2632
2018-05-21T05:28:43.115Z,2652
2018-05-21T05:29:44.730Z,2680
2018-05-21T05:30:46.353Z,2704
2018-05-21T05:31:47.968Z,2724
2018-05-21T05:32:49.589Z,2752
2018-05-21T05:33:51.212Z,2772
2018-05-21T05:34:52.826Z,2792
2018-05-21T05:35:54.517Z,2812
2018-05-21T05:36:56.064Z,2408
2018-05-21T05:37:57.685Z,2408
2018-05-21T05:38:59.308Z,2420
2018-05-21T05:40:00.930Z,2428
2018-05-21T05:41:02.549Z,2428
2018-05-21T05:42:04.203Z,2436
2018-05-21T05:43:05.789Z,2444
2018-05-21T05:44:07.413Z,2456
2018-05-21T05:45:09.075Z,2472
2018-05-21T05:46:10.697Z,2484
2018-05-21T05:47:12.310Z,2500
2018-05-21T05:48:13.930Z,2512
2018-05-21T05:49:15.544Z,2520
2018-05-21T05:50:17.165Z,2532
2018-05-21T05:51:18.788Z,2548
2018-05-21T05:52:20.401Z,2560
2018-05-21T05:53:22.026Z,2568
2018-05-21T05:54:23.644Z,2584
2018-05-21T05:55:25.265Z,2600
2018-05-21T05:56:26.890Z,2616
2018-05-21T05:57:28.507Z,2632
2018-05-21T05:58:30.127Z,2648
2018-05-21T05:59:31.749Z,2664
2018-05-21T06:00:33.369Z,2680
2018-05-21T06:01:35.027Z,2700
2018-05-21T06:02:36.678Z,2720
2018-05-21T06:03:38.325Z,2740
2018-05-21T06:04:39.920Z,2752
2018-05-21T06:05:41.538Z,2780
2018-05-21T06:06:43.155Z,2772
2018-05-21T06:07:44.777Z,2840
2018-05-21T06:08:46.398Z,2844
2018-05-21T06:09:48.022Z,2820
2018-05-21T06:10:49.643Z,2664
2018-05-21T06:11:51.259Z,4044
2018-05-21T06:12:52.883Z,7432
2018-05-21T06:13:54.500Z,18656
2018-05-21T06:14:56.120Z,28192
2018-05-21T06:15:57.745Z,36352
2018-05-21T06:16:59.371Z,40416
2018-05-21T06:18:00.990Z,36192
2018-05-21T06:19:02.620Z,31392
2018-05-21T06:20:04.241Z,32768
2018-05-21T06:21:05.867Z,39456
2018-05-21T06:22:07.483Z,43104
2018-05-21T06:23:09.105Z,43488
2018-05-21T06:24:10.731Z,38976
2018-05-21T06:25:12.356Z,39488
2018-05-21T06:26:13.978Z,37664
2018-05-21T06:27:15.604Z,38112
2018-05-21T06:28:17.232Z,36928
2018-05-21T06:29:18.860Z,38560
2018-05-21T06:30:20.486Z,38016
2018-05-21T06:31:22.110Z,38912
2018-05-21T06:32:23.736Z,39424
2018-05-21T06:33:25.366Z,35680
2018-05-21T06:34:27.074Z,38080
2018-05-21T06:35:28.615Z,36512
2018-05-21T06:36:30.266Z,39840
2018-05-21T06:37:31.869Z,39520
2018-05-21T06:38:33.497Z,39104
2018-05-21T06:39:35.131Z,36352
2018-05-21T06:40:36.756Z,34048
2018-05-21T06:41:38.393Z,34272
2018-05-21T06:42:40.015Z,33792
2018-05-21T06:43:41.647Z,38304
2018-05-21T06:44:43.272Z,37920
2018-05-21T06:45:44.898Z,34688
2018-05-21T06:46:46.547Z,29440
2018-05-21T06:47:48.197Z,32064
2018-05-21T06:48:49.806Z,37568
2018-05-21T06:49:51.441Z,40256
2018-05-21T06:50:53.065Z,38464
2018-05-21T06:51:54.695Z,36640
2018-05-21T06:52:56.336Z,33504
2018-05-21T06:53:57.967Z,30368
2018-05-21T06:54:59.599Z,30528
2018-05-21T06:56:01.904Z,35296
2018-05-21T06:57:03.714Z,37280
2018-05-21T06:58:05.342Z,34848
2018-05-21T06:59:06.979Z,34592
2018-05-21T07:00:08.609Z,35296
2018-05-21T07:01:10.239Z,31936
2018-05-21T07:02:11.878Z,31328
2018-05-21T07:03:13.508Z,33632
2018-05-21T07:04:15.144Z,34464
2018-05-21T07:05:16.775Z,34368
2018-05-21T07:06:18.409Z,33408
2018-05-21T07:07:20.046Z,34912
2018-05-21T07:08:21.675Z,38112
2018-05-21T07:09:23.315Z,38976
2018-05-21T07:10:24.949Z,36896
2018-05-21T07:11:26.584Z,34144
2018-05-21T07:12:28.213Z,36160
2018-05-21T07:13:29.852Z,37408
2018-05-21T07:14:31.484Z,39936
2018-05-21T07:15:33.123Z,39424
2018-05-21T07:16:34.762Z,38336
2018-05-21T07:17:36.393Z,34592
2018-05-21T07:18:38.714Z,34080
2018-05-21T07:19:40.357Z,35072
2018-05-21T07:20:41.987Z,35392
2018-05-21T07:21:43.622Z,34240
2018-05-21T07:22:45.258Z,35136
2018-05-21T07:23:46.900Z,35264
2018-05-21T07:24:48.540Z,36768
2018-05-21T07:25:50.167Z,38240
2018-05-21T07:26:51.808Z,39392
2018-05-21T07:27:53.442Z,37504
2018-05-21T07:28:55.074Z,35488
2018-05-21T07:29:56.713Z,35168
2018-05-21T07:30:58.349Z,37600
2018-05-21T07:31:59.991Z,40960
2018-05-21T07:33:01.616Z,43904
2018-05-21T07:34:03.255Z,42944
2018-05-21T07:35:04.891Z,37632
2018-05-21T07:36:06.530Z,36224
2018-05-21T07:37:08.168Z,38432
2018-05-21T07:38:09.802Z,40672
2018-05-21T07:39:11.441Z,40096
2018-05-21T07:40:13.081Z,42368
2018-05-21T07:41:14.718Z,42368
2018-05-21T07:42:16.350Z,40416
2018-05-21T07:43:17.991Z,39424
2018-05-21T07:44:19.628Z,42496
2018-05-21T07:45:21.262Z,49760
2018-05-21T07:46:22.894Z,52960
2018-05-21T07:47:24.538Z,49152
2018-05-21T07:48:26.167Z,46112
2018-05-21T07:49:27.807Z,44224
2018-05-21T07:50:29.443Z,38592
2018-05-21T07:51:31.123Z,32192
2018-05-21T07:52:32.717Z,29632
2018-05-21T07:53:34.351Z,28960
2018-05-21T07:54:35.988Z,28704
2018-05-21T07:55:37.622Z,28416
2018-05-21T07:56:39.257Z,28128
2018-05-21T07:57:40.895Z,28096
2018-05-21T07:58:42.533Z,28032
2018-05-21T07:59:44.167Z,28288
2018-05-21T08:00:45.809Z,28448
2018-05-21T08:01:47.450Z,28768
2018-05-21T08:02:49.086Z,28992
2018-05-21T08:03:50.722Z,29184
2018-05-21T08:04:52.357Z,29312
2018-05-21T08:05:53.994Z,29568
2018-05-21T08:06:55.636Z,29696
2018-05-21T08:07:57.325Z,29824
2018-05-21T08:08:58.913Z,29888
2018-05-21T08:10:00.551Z,30144
2018-05-21T08:11:02.188Z,30240
2018-05-21T08:12:03.819Z,48896
2018-05-21T08:13:05.462Z,48992
2018-05-21T08:14:07.097Z,49664
2018-05-21T08:15:08.741Z,49408
2018-05-21T08:16:10.372Z,49952
2018-05-21T08:17:12.015Z,50048
2018-05-21T08:18:13.657Z,50112
2018-05-21T08:19:15.291Z,50240
2018-05-21T08:20:16.933Z,50144
2018-05-21T08:21:18.570Z,49920
2018-05-21T08:22:20.229Z,50016
2018-05-21T08:23:21.851Z,49792
2018-05-21T08:24:23.490Z,49760
2018-05-21T08:25:25.127Z,49632
2018-05-21T08:26:26.763Z,49760
2018-05-21T08:27:28.409Z,49152
2018-05-21T08:28:30.051Z,49440
2018-05-21T08:29:31.692Z,49216
2018-05-21T08:30:33.336Z,48896
2018-05-21T08:31:34.970Z,48896
2018-05-21T08:32:36.616Z,48288
2018-05-21T08:33:38.254Z,48288
2018-05-21T08:34:39.899Z,47904
2018-05-21T08:35:41.537Z,47744
2018-05-21T08:36:43.181Z,46848
2018-05-21T08:37:44.819Z,46112
2018-05-21T08:38:46.461Z,45856
2018-05-21T08:39:48.100Z,45408
2018-05-21T08:40:49.820Z,44960
2018-05-21T08:41:51.385Z,44128
2018-05-21T08:42:53.025Z,43136
2018-05-21T08:43:54.666Z,42944
2018-05-21T08:44:56.302Z,42272
2018-05-21T08:45:57.940Z,41568
2018-05-21T08:46:59.583Z,40960
2018-05-21T08:48:01.223Z,40672
2018-05-21T08:49:02.872Z,39968
2018-05-21T08:50:04.509Z,39456
2018-05-21T08:51:06.154Z,39328
2018-05-21T08:52:07.789Z,38880
2018-05-21T08:53:09.437Z,38112
2018-05-21T08:54:11.079Z,37856
2018-05-21T08:55:12.771Z,37856
2018-05-21T08:56:14.354Z,38080
2018-05-21T08:57:15.997Z,39520
2018-05-21T08:58:17.635Z,45056
2018-05-21T08:59:19.282Z,51136
2018-05-21T09:00:20.986Z,53184
2018-05-21T09:01:22.566Z,56416
2018-05-21T09:02:24.207Z,58112
2018-05-21T09:03:25.851Z,65216
2018-05-21T09:04:27.490Z,75296
2018-05-21T09:05:29.130Z,80896
2018-05-21T09:06:30.773Z,83456
2018-05-21T09:07:32.414Z,86048
2018-05-21T09:08:34.052Z,86400
2018-05-21T09:09:35.697Z,84576
2018-05-21T09:10:37.417Z,83872
2018-05-21T09:11:38.981Z,83680
2018-05-21T09:12:40.628Z,84608
2018-05-21T09:13:42.275Z,84288
2018-05-21T09:14:43.905Z,82432
2018-05-21T09:15:45.543Z,80832
2018-05-21T09:16:47.183Z,82848
2018-05-21T09:17:48.824Z,84352
2018-05-21T09:18:51.423Z,87008
2018-05-21T09:19:53.064Z,79488
2018-05-21T09:20:54.704Z,76608
2018-05-21T09:21:56.342Z,71328
2018-05-21T09:22:57.987Z,64160
2018-05-21T09:23:59.630Z,63616
2018-05-21T09:25:01.265Z,64096
2018-05-21T09:26:02.954Z,60000
2018-05-21T09:27:04.553Z,57248
2018-05-21T09:28:06.191Z,62496
2018-05-21T09:29:07.838Z,66432
2018-05-21T09:30:09.470Z,65728
2018-05-21T09:31:11.115Z,64992
2018-05-21T09:32:12.757Z,63936
2018-05-21T09:33:14.399Z,62176
2018-05-21T09:34:16.045Z,60960
2018-05-21T09:35:17.686Z,61664
2018-05-21T09:36:19.329Z,63104
2018-05-21T09:37:20.970Z,63680
2018-05-21T09:38:22.617Z,63744
2018-05-21T09:39:24.253Z,63584
2018-05-21T09:40:25.900Z,63168
2018-05-21T09:41:27.538Z,64832
2018-05-21T09:42:29.181Z,66848
2018-05-21T09:43:30.818Z,66304
2018-05-21T09:44:32.462Z,65952
2018-05-21T09:45:34.100Z,66720
2018-05-21T09:46:35.751Z,66272
2018-05-21T09:47:37.387Z,64384
2018-05-21T09:48:39.095Z,65088
2018-05-21T09:49:40.667Z,66144
2018-05-21T09:50:42.308Z,63648
2018-05-21T09:51:43.946Z,63008
2018-05-21T09:52:45.594Z,63328
2018-05-21T09:53:47.237Z,63776
2018-05-21T09:54:48.881Z,63584
2018-05-21T09:55:50.521Z,63072
2018-05-21T09:56:52.163Z,63232
2018-05-21T09:57:53.807Z,63072
2018-05-21T09:58:55.446Z,59136
2018-05-21T09:59:57.084Z,58688
2018-05-21T10:00:58.731Z,62304
2018-05-21T10:02:00.372Z,66496
2018-05-21T10:03:02.035Z,69184
2018-05-21T10:04:03.669Z,67680
2018-05-21T10:05:05.310Z,67360
2018-05-21T10:06:06.954Z,65920
2018-05-21T10:07:08.598Z,66144
2018-05-21T10:08:10.237Z,67520
2018-05-21T10:09:11.877Z,68896
2018-05-21T10:10:13.525Z,71776
2018-05-21T10:11:15.161Z,73952
2018-05-21T10:12:16.806Z,73088
2018-05-21T10:13:18.448Z,69760
2018-05-21T10:14:20.087Z,71872
2018-05-21T10:15:21.737Z,74240
2018-05-21T10:16:23.378Z,74176
2018-05-21T10:17:25.023Z,72576
2018-05-21T10:18:26.661Z,67648
2018-05-21T10:19:28.401Z,69216
2018-05-21T10:20:29.943Z,70656
2018-05-21T10:21:31.590Z,73632
2018-05-21T10:22:33.231Z,73440
2018-05-21T10:23:34.882Z,73856
2018-05-21T10:24:36.525Z,74528
2018-05-21T10:25:38.173Z,74496
2018-05-21T10:26:39.812Z,73024
2018-05-21T10:27:41.459Z,73824
2018-05-21T10:28:43.103Z,77184
2018-05-21T10:29:44.746Z,75072
2018-05-21T10:30:46.385Z,76800
2018-05-21T10:31:48.028Z,75968
2018-05-21T10:32:49.676Z,78560
2018-05-21T10:33:51.319Z,77856
2018-05-21T10:34:52.959Z,80928
2018-05-21T10:35:54.610Z,83776
2018-05-21T10:36:56.250Z,81280
2018-05-21T10:37:57.892Z,78336
2018-05-21T10:38:59.541Z,79264
2018-05-21T10:40:01.177Z,81408
2018-05-21T10:41:02.823Z,82432
2018-05-21T10:42:04.462Z,82656
2018-05-21T10:43:06.105Z,83264
2018-05-21T10:44:07.746Z,83584
2018-05-21T10:45:09.395Z,83008
2018-05-21T10:46:11.037Z,82560
2018-05-21T10:47:12.675Z,85792
2018-05-21T10:48:14.318Z,88032
2018-05-21T10:49:15.964Z,85760
2018-05-21T10:50:17.607Z,83328
2018-05-21T10:51:19.266Z,83616
2018-05-21T10:52:20.895Z,87840
2018-05-21T10:53:22.536Z,91488
2018-05-21T10:54:24.176Z,87328
2018-05-21T10:55:25.821Z,82720
2018-05-21T10:56:27.467Z,83200
2018-05-21T10:57:29.115Z,90016
2018-05-21T10:58:30.758Z,91104
2018-05-21T10:59:32.388Z,88448
2018-05-21T11:00:34.036Z,88800
2018-05-21T11:01:35.672Z,89792
2018-05-21T11:02:37.317Z,89632
2018-05-21T11:03:38.954Z,88832
2018-05-21T11:04:40.617Z,89568
2018-05-21T11:05:42.235Z,90048
2018-05-21T11:06:43.879Z,91584
2018-05-21T11:07:45.526Z,88576
2018-05-21T11:08:47.172Z,85536
2018-05-21T11:09:48.806Z,82240
2018-05-21T11:10:50.458Z,81536
2018-05-21T11:11:52.090Z,81536
2018-05-21T11:12:53.732Z,78336
2018-05-21T11:13:55.370Z,76000
2018-05-21T11:14:57.011Z,78400
2018-05-21T11:15:58.654Z,79360
2018-05-21T11:17:00.298Z,81504
2018-05-21T11:18:01.994Z,83392
2018-05-21T11:19:03.577Z,82880
2018-05-21T11:20:05.224Z,82944
2018-05-21T11:21:06.870Z,84000
2018-05-21T11:22:08.508Z,83808
2018-05-21T11:23:10.151Z,83744
2018-05-21T11:24:11.791Z,82240
2018-05-21T11:25:13.431Z,80544
2018-05-21T11:26:15.072Z,82848
2018-05-21T11:27:16.717Z,82432
2018-05-21T11:28:18.358Z,79808
2018-05-21T11:29:20.006Z,78080
2018-05-21T11:30:21.641Z,76672
2018-05-21T11:31:23.289Z,75232
2018-05-21T11:32:24.929Z,75392
2018-05-21T11:33:26.572Z,75936
2018-05-21T11:34:28.212Z,77984
2018-05-21T11:35:29.860Z,75072
2018-05-21T11:36:31.501Z,72800
2018-05-21T11:37:33.141Z,73600
2018-05-21T11:38:34.778Z,75072
2018-05-21T11:39:36.422Z,72960
2018-05-21T11:40:38.061Z,71648
2018-05-21T11:41:39.707Z,69984
2018-05-21T11:42:41.347Z,68288
2018-05-21T11:43:42.991Z,71136
2018-05-21T11:44:44.632Z,74080
2018-05-21T11:45:46.268Z,71872
2018-05-21T11:46:47.912Z,71584
2018-05-21T11:47:49.555Z,75424
2018-05-21T11:48:51.193Z,73536
2018-05-21T11:49:52.839Z,74272
2018-05-21T11:50:54.481Z,72032
2018-05-21T11:51:56.117Z,70272
2018-05-21T11:52:57.760Z,68640
2018-05-21T11:53:59.405Z,69888
2018-05-21T11:55:01.043Z,70496
2018-05-21T11:56:02.684Z,71424
2018-05-21T11:57:04.326Z,71168
2018-05-21T11:58:05.968Z,71104
2018-05-21T11:59:07.607Z,71008
2018-05-21T12:00:09.245Z,73312
2018-05-21T12:01:10.889Z,73536
2018-05-21T12:02:12.528Z,73952
2018-05-21T12:03:14.173Z,74720
2018-05-21T12:04:15.816Z,76032
2018-05-21T12:05:17.456Z,74784
2018-05-21T12:06:19.099Z,70592
2018-05-21T12:07:20.735Z,69632
2018-05-21T12:08:22.374Z,69760
2018-05-21T12:09:24.018Z,70176
2018-05-21T12:10:25.663Z,71424
2018-05-21T12:11:27.300Z,70176
2018-05-21T12:12:28.941Z,72736
2018-05-21T12:13:30.663Z,73632
2018-05-21T12:14:32.226Z,73344
2018-05-21T12:15:33.865Z,72768
2018-05-21T12:16:35.506Z,73184
2018-05-21T12:17:37.144Z,71776
2018-05-21T12:18:38.789Z,69024
2018-05-21T12:19:40.428Z,68864
2018-05-21T12:20:42.069Z,69280
2018-05-21T12:21:43.707Z,70464
2018-05-21T12:22:45.351Z,68576
2018-05-21T12:23:46.993Z,69056
2018-05-21T12:24:48.636Z,67936
2018-05-21T12:25:50.283Z,68640
2018-05-21T12:26:51.926Z,70944
2018-05-21T12:27:53.562Z,73792
2018-05-21T12:28:55.203Z,70752
2018-05-21T12:29:56.845Z,69920
2018-05-21T12:30:58.486Z,70976
2018-05-21T12:32:00.125Z,72128
2018-05-21T12:33:01.772Z,72864
2018-05-21T12:34:03.409Z,71232
2018-05-21T12:35:05.055Z,71712
2018-05-21T12:36:06.688Z,72640
2018-05-21T12:37:08.332Z,70880
2018-05-21T12:38:10.000Z,70592
2018-05-21T12:39:11.609Z,72256
2018-05-21T12:40:13.246Z,72896
2018-05-21T12:41:14.891Z,73600
2018-05-21T12:42:16.527Z,73216
2018-05-21T12:43:18.163Z,71264
2018-05-21T12:44:19.805Z,72096
2018-05-21T12:45:21.440Z,72384
2018-05-21T12:46:23.086Z,72448
2018-05-21T12:47:24.730Z,72096
2018-05-21T12:48:26.367Z,72320
2018-05-21T12:49:28.009Z,70944
2018-05-21T12:50:29.641Z,67520
2018-05-21T12:51:31.281Z,66336
2018-05-21T12:52:32.919Z,67456
2018-05-21T12:53:34.555Z,67040
2018-05-21T12:54:36.221Z,68320
2018-05-21T12:55:37.837Z,68864
2018-05-21T12:56:39.471Z,63808
2018-05-21T12:57:41.111Z,64672
2018-05-21T12:58:42.747Z,40416
2018-05-21T12:59:44.390Z,65824
2018-05-21T13:00:46.027Z,71968
2018-05-21T13:01:47.665Z,72384
2018-05-21T13:02:49.301Z,69632
2018-05-21T13:03:50.933Z,70400
2018-05-21T13:04:52.573Z,72512
2018-05-21T13:05:54.216Z,73408
2018-05-21T13:06:55.852Z,71840
2018-05-21T13:07:57.494Z,70752
2018-05-21T13:08:59.133Z,68064
2018-05-21T13:10:00.776Z,66208
2018-05-21T13:11:02.413Z,64416
2018-05-21T13:12:04.044Z,66048
2018-05-21T13:13:05.675Z,68352
2018-05-21T13:14:07.312Z,68608
2018-05-21T13:15:08.954Z,69216
2018-05-21T13:16:10.592Z,67296
2018-05-21T13:17:12.231Z,65632
2018-05-21T13:18:13.871Z,65856
2018-05-21T13:19:15.510Z,65600
2018-05-21T13:20:17.153Z,65344
2018-05-21T13:21:18.784Z,65536
2018-05-21T13:22:20.428Z,66048
2018-05-21T13:23:22.062Z,66528
2018-05-21T13:24:23.768Z,67200
2018-05-21T13:25:25.335Z,65248
2018-05-21T13:26:26.978Z,63424
2018-05-21T13:27:28.617Z,60704
2018-05-21T13:28:30.252Z,58624
2018-05-21T13:29:31.895Z,58624
2018-05-21T13:30:33.525Z,56704
2018-05-21T13:31:35.162Z,57408
2018-05-21T13:32:36.798Z,55872
2018-05-21T13:33:38.433Z,57472
2018-05-21T13:34:40.083Z,59872
2018-05-21T13:35:41.705Z,60096
2018-05-21T13:36:43.344Z,59680
2018-05-21T13:37:44.979Z,59328
2018-05-21T13:38:46.621Z,61312
2018-05-21T13:39:48.254Z,61632
2018-05-21T13:40:49.893Z,62624
2018-05-21T13:41:51.526Z,64320
2018-05-21T13:42:53.167Z,64576
2018-05-21T13:43:54.799Z,63168
2018-05-21T13:44:56.443Z,51552
2018-05-21T13:45:58.076Z,63104